sensor_id;sensor_type;location;lat;lon;timestamp;pressure;altitude;pressure_sealevel;temperature;humidity
15529;BME280;7866;52.280;9.500;2023-02-12T00:02:29;102336.34;;;8.55;98.66
15529;BME280;7866;52.280;9.500;2023-02-12T00:07:30;102340.50;;;8.47;99.73
15529;BME280;7866;52.280;9.500;2023-02-12T00:12:33;102339.41;;;8.49;99.62
15529;BME280;7866;52.280;9.500;2023-02-12T00:17:35;102349.69;;;8.43;100.00
15529;BME280;7866;52.280;9.500;2023-02-12T00:22:37;102348.94;;;8.41;100.00
15529;BME280;7866;52.280;9.500;2023-02-12T00:27:40;102346.25;;;8.41;100.00
15529;BME280;7866;52.280;9.500;2023-02-12T00:32:41;102352.69;;;8.38;100.00
15529;BME280;7866;52.280;9.500;2023-02-12T00:37:45;102359.72;;;8.39;100.00
15529;BME280;7866;52.280;9.500;2023-02-12T00:42:48;102355.34;;;8.38;100.00
15529;BME280;7866;52.280;9.500;2023-02-12T00:47:49;102364.22;;;8.38;100.00
15529;BME280;7866;52.280;9.500;2023-02-12T00:52:51;102363.38;;;8.38;100.00
15529;BME280;7866;52.280;9.500;2023-02-12T00:57:54;102371.25;;;8.39;100.00
15529;BME280;7866;52.280;9.500;2023-02-12T01:02:56;102370.88;;;8.31;100.00
15529;BME280;7866;52.280;9.500;2023-02-12T01:07:57;102373.56;;;8.31;100.00
15529;BME280;7866;52.280;9.500;2023-02-12T01:13:00;102372.78;;;8.29;100.00
15529;BME280;7866;52.280;9.500;2023-02-12T01:18:02;102379.22;;;8.27;100.00
15529;BME280;7866;52.280;9.500;2023-02-12T01:23:04;102385.50;;;8.26;100.00
15529;BME280;7866;52.280;9.500;2023-02-12T01:28:09;102386.25;;;8.28;100.00
15529;BME280;7866;52.280;9.500;2023-02-12T01:33:11;102391.72;;;8.26;100.00
15529;BME280;7866;52.280;9.500;2023-02-12T01:38:13;102383.69;;;8.26;100.00
15529;BME280;7866;52.280;9.500;2023-02-12T01:43:16;102387.22;;;8.27;100.00
15529;BME280;7866;52.280;9.500;2023-02-12T01:48:19;102391.25;;;8.20;100.00
15529;BME280;7866;52.280;9.500;2023-02-12T01:53:24;102402.78;;;8.20;100.00
15529;BME280;7866;52.280;9.500;2023-02-12T01:58:35;102393.16;;;8.18;100.00
15529;BME280;7866;52.280;9.500;2023-02-12T02:03:39;102397.75;;;8.15;100.00
15529;BME280;7866;52.280;9.500;2023-02-12T02:08:43;102398.06;;;8.11;100.00
15529;BME280;7866;52.280;9.500;2023-02-12T02:13:46;102393.69;;;8.10;100.00
15529;BME280;7866;52.280;9.500;2023-02-12T02:19:11;102388.44;;;8.08;100.00
15529;BME280;7866;52.280;9.500;2023-02-12T02:24:41;102386.75;;;8.07;100.00
15529;BME280;7866;52.280;9.500;2023-02-12T02:30:23;102387.91;;;8.03;100.00
15529;BME280;7866;52.280;9.500;2023-02-12T02:35:35;102380.09;;;8.00;100.00
15529;BME280;7866;52.280;9.500;2023-02-12T02:40:48;102378.41;;;7.99;100.00
15529;BME280;7866;52.280;9.500;2023-02-12T02:45:55;102384.78;;;7.97;100.00
15529;BME280;7866;52.280;9.500;2023-02-12T02:51:02;102382.22;;;7.95;100.00
15529;BME280;7866;52.280;9.500;2023-02-12T02:56:08;102383.94;;;7.96;100.00
15529;BME280;7866;52.280;9.500;2023-02-12T03:01:15;102383.09;;;7.96;100.00
15529;BME280;7866;52.280;9.500;2023-02-12T03:06:24;102389.16;;;7.98;100.00
15529;BME280;7866;52.280;9.500;2023-02-12T03:11:29;102381.25;;;7.96;100.00
15529;BME280;7866;52.280;9.500;2023-02-12T03:16:36;102391.19;;;7.94;100.00
15529;BME280;7866;52.280;9.500;2023-02-12T03:21:42;102389.38;;;7.95;100.00
15529;BME280;7866;52.280;9.500;2023-02-12T03:26:49;102402.59;;;7.96;100.00
15529;BME280;7866;52.280;9.500;2023-02-12T03:32:04;102400.06;;;7.95;100.00
15529;BME280;7866;52.280;9.500;2023-02-12T03:37:12;102405.28;;;7.96;100.00
15529;BME280;7866;52.280;9.500;2023-02-12T03:42:20;102415.94;;;7.96;100.00
15529;BME280;7866;52.280;9.500;2023-02-12T03:47:34;102407.94;;;7.96;100.00
15529;BME280;7866;52.280;9.500;2023-02-12T03:52:40;102423.28;;;7.93;100.00
15529;BME280;7866;52.280;9.500;2023-02-12T03:57:44;102416.13;;;7.93;100.00
15529;BME280;7866;52.280;9.500;2023-02-12T04:02:49;102428.31;;;7.97;100.00
15529;BME280;7866;52.280;9.500;2023-02-12T04:07:53;102433.56;;;7.99;100.00
15529;BME280;7866;52.280;9.500;2023-02-12T04:12:59;102438.06;;;7.98;100.00
15529;BME280;7866;52.280;9.500;2023-02-12T04:18:12;102436.31;;;7.97;100.00
15529;BME280;7866;52.280;9.500;2023-02-12T04:23:21;102453.31;;;7.96;100.00
15529;BME280;7866;52.280;9.500;2023-02-12T04:28:36;102455.97;;;7.96;100.00
15529;BME280;7866;52.280;9.500;2023-02-12T04:33:48;102471.31;;;7.93;100.00
15529;BME280;7866;52.280;9.500;2023-02-12T04:38:54;102471.31;;;7.93;100.00
15529;BME280;7866;52.280;9.500;2023-02-12T04:43:57;102471.50;;;7.89;100.00
15529;BME280;7866;52.280;9.500;2023-02-12T04:49:00;102468.00;;;7.89;100.00
15529;BME280;7866;52.280;9.500;2023-02-12T04:54:02;102469.81;;;7.88;100.00
15529;BME280;7866;52.280;9.500;2023-02-12T04:59:04;102474.19;;;7.89;100.00
15529;BME280;7866;52.280;9.500;2023-02-12T05:04:07;102468.00;;;7.89;100.00
15529;BME280;7866;52.280;9.500;2023-02-12T05:09:14;102475.25;;;7.87;100.00
15529;BME280;7866;52.280;9.500;2023-02-12T05:14:16;102468.00;;;7.89;100.00
15529;BME280;7866;52.280;9.500;2023-02-12T05:19:19;102468.00;;;7.89;100.00
15529;BME280;7866;52.280;9.500;2023-02-12T05:24:21;102463.63;;;7.88;100.00
15529;BME280;7866;52.280;9.500;2023-02-12T05:29:22;102461.81;;;7.88;100.00
15529;BME280;7866;52.280;9.500;2023-02-12T05:34:25;102461.91;;;7.87;100.00
15529;BME280;7866;52.280;9.500;2023-02-12T05:39:27;102471.91;;;7.83;100.00
15529;BME280;7866;52.280;9.500;2023-02-12T05:44:29;102471.81;;;7.85;100.00
15529;BME280;7866;52.280;9.500;2023-02-12T05:49:32;102482.47;;;7.85;100.00
15529;BME280;7866;52.280;9.500;2023-02-12T05:54:33;102483.13;;;7.88;100.00
15529;BME280;7866;52.280;9.500;2023-02-12T05:59:35;102476.09;;;7.87;100.00
15529;BME280;7866;52.280;9.500;2023-02-12T06:04:38;102473.72;;;7.83;100.00
15529;BME280;7866;52.280;9.500;2023-02-12T06:09:39;102479.06;;;7.83;100.00
15529;BME280;7866;52.280;9.500;2023-02-12T06:14:41;102471.63;;;7.74;100.00
15529;BME280;7866;52.280;9.500;2023-02-12T06:19:44;102477.94;;;7.73;100.00
15529;BME280;7866;52.280;9.500;2023-02-12T06:24:46;102481.16;;;7.78;100.00
15529;BME280;7866;52.280;9.500;2023-02-12T06:29:47;102479.84;;;7.71;100.00
15529;BME280;7866;52.280;9.500;2023-02-12T06:34:50;102480.53;;;7.74;100.00
15529;BME280;7866;52.280;9.500;2023-02-12T06:39:52;102483.94;;;7.76;100.00
15529;BME280;7866;52.280;9.500;2023-02-12T06:44:54;102485.34;;;7.82;100.00
15529;BME280;7866;52.280;9.500;2023-02-12T06:49:57;102500.59;;;7.80;100.00
15529;BME280;7866;52.280;9.500;2023-02-12T06:54:58;102502.72;;;7.75;100.00
15529;BME280;7866;52.280;9.500;2023-02-12T07:00:00;102514.91;;;7.79;100.00
15529;BME280;7866;52.280;9.500;2023-02-12T07:05:03;102522.59;;;7.83;100.00
15529;BME280;7866;52.280;9.500;2023-02-12T07:10:06;102529.34;;;7.89;100.00
15529;BME280;7866;52.280;9.500;2023-02-12T07:15:09;102529.66;;;7.84;100.00
15529;BME280;7866;52.280;9.500;2023-02-12T07:20:12;102530.41;;;7.86;100.00
15529;BME280;7866;52.280;9.500;2023-02-12T07:25:14;102528.91;;;7.82;100.00
15529;BME280;7866;52.280;9.500;2023-02-12T07:30:16;102534.91;;;7.86;100.00
15529;BME280;7866;52.280;9.500;2023-02-12T07:35:20;102550.38;;;7.94;100.00
15529;BME280;7866;52.280;9.500;2023-02-12T07:40:21;102543.81;;;7.99;100.00
15529;BME280;7866;52.280;9.500;2023-02-12T07:45:23;102544.06;;;8.09;100.00
15529;BME280;7866;52.280;9.500;2023-02-12T07:50:26;102539.09;;;8.17;100.00
15529;BME280;7866;52.280;9.500;2023-02-12T07:55:28;102537.81;;;8.10;100.00
15529;BME280;7866;52.280;9.500;2023-02-12T08:00:29;102533.47;;;8.22;100.00
15529;BME280;7866;52.280;9.500;2023-02-12T08:05:32;102538.41;;;8.28;100.00
15529;BME280;7866;52.280;9.500;2023-02-12T08:10:34;102552.16;;;8.22;100.00
15529;BME280;7866;52.280;9.500;2023-02-12T08:15:35;102561.13;;;8.21;100.00
15529;BME280;7866;52.280;9.500;2023-02-12T08:20:38;102559.56;;;8.31;100.00
15529;BME280;7866;52.280;9.500;2023-02-12T08:25:40;102565.84;;;8.44;100.00
15529;BME280;7866;52.280;9.500;2023-02-12T08:30:41;102566.22;;;8.52;100.00
15529;BME280;7866;52.280;9.500;2023-02-12T08:35:44;102570.19;;;8.59;100.00
15529;BME280;7866;52.280;9.500;2023-02-12T08:40:46;102565.94;;;8.70;99.82
15529;BME280;7866;52.280;9.500;2023-02-12T08:45:47;102566.66;;;8.59;99.38
15529;BME280;7866;52.280;9.500;2023-02-12T08:50:50;102575.38;;;8.48;98.84
15529;BME280;7866;52.280;9.500;2023-02-12T08:55:52;102585.78;;;8.66;99.32
15529;BME280;7866;52.280;9.500;2023-02-12T09:00:54;102576.03;;;8.79;98.73
15529;BME280;7866;52.280;9.500;2023-02-12T09:05:57;102593.09;;;8.76;97.98
15529;BME280;7866;52.280;9.500;2023-02-12T09:10:58;102585.69;;;8.94;97.91
15529;BME280;7866;52.280;9.500;2023-02-12T09:16:00;102590.97;;;8.81;97.02
15529;BME280;7866;52.280;9.500;2023-02-12T09:21:06;102597.66;;;9.01;97.36
15529;BME280;7866;52.280;9.500;2023-02-12T09:26:10;102609.41;;;8.86;97.17
15529;BME280;7866;52.280;9.500;2023-02-12T09:31:13;102608.50;;;8.85;97.00
15529;BME280;7866;52.280;9.500;2023-02-12T09:36:17;102619.28;;;8.98;97.07
15529;BME280;7866;52.280;9.500;2023-02-12T09:47:11;102618.03;;;8.89;96.14
15529;BME280;7866;52.280;9.500;2023-02-12T09:52:16;102614.44;;;8.91;96.47
15529;BME280;7866;52.280;9.500;2023-02-12T09:57:24;102612.31;;;8.96;96.49
15529;BME280;7866;52.280;9.500;2023-02-12T10:02:28;102614.09;;;9.22;96.30
15529;BME280;7866;52.280;9.500;2023-02-12T10:07:52;102616.13;;;9.31;95.51
15529;BME280;7866;52.280;9.500;2023-02-12T10:13:01;102618.47;;;9.36;94.70
15529;BME280;7866;52.280;9.500;2023-02-12T10:18:17;102623.94;;;9.47;93.80
15529;BME280;7866;52.280;9.500;2023-02-12T10:23:39;102635.16;;;9.40;93.09
15529;BME280;7866;52.280;9.500;2023-02-12T10:28:45;102629.69;;;9.41;94.43
15529;BME280;7866;52.280;9.500;2023-02-12T10:33:48;102637.19;;;9.36;94.11
15529;BME280;7866;52.280;9.500;2023-02-12T10:38:56;102634.31;;;9.39;94.37
15529;BME280;7866;52.280;9.500;2023-02-12T10:43:58;102633.91;;;9.58;94.07
15529;BME280;7866;52.280;9.500;2023-02-12T10:49:01;102636.16;;;9.51;94.06
15529;BME280;7866;52.280;9.500;2023-02-12T10:54:34;102631.84;;;9.36;93.35
15529;BME280;7866;52.280;9.500;2023-02-12T10:59:36;102631.31;;;9.56;94.37
15529;BME280;7866;52.280;9.500;2023-02-12T11:04:37;102628.84;;;9.53;93.77
15529;BME280;7866;52.280;9.500;2023-02-12T11:09:42;102625.22;;;9.80;93.07
15529;BME280;7866;52.280;9.500;2023-02-12T11:14:48;102630.16;;;9.86;93.18
15529;BME280;7866;52.280;9.500;2023-02-12T11:20:01;102632.50;;;9.52;93.49
15529;BME280;7866;52.280;9.500;2023-02-12T11:25:15;102628.25;;;9.50;93.18
15529;BME280;7866;52.280;9.500;2023-02-12T11:30:19;102622.78;;;9.51;93.25
15529;BME280;7866;52.280;9.500;2023-02-12T11:35:23;102614.94;;;9.35;93.95
15529;BME280;7866;52.280;9.500;2023-02-12T11:40:29;102615.06;;;9.47;93.93
15529;BME280;7866;52.280;9.500;2023-02-12T11:45:34;102617.75;;;9.34;94.11
15529;BME280;7866;52.280;9.500;2023-02-12T11:50:37;102610.63;;;9.20;95.57
15529;BME280;7866;52.280;9.500;2023-02-12T11:55:40;102609.59;;;9.23;95.70
15529;BME280;7866;52.280;9.500;2023-02-12T12:00:45;102610.97;;;9.41;95.82
15529;BME280;7866;52.280;9.500;2023-02-12T12:05:53;102606.72;;;9.38;95.83
15529;BME280;7866;52.280;9.500;2023-02-12T12:11:03;102601.38;;;9.38;95.64
15529;BME280;7866;52.280;9.500;2023-02-12T12:16:11;102604.16;;;9.50;95.94
15529;BME280;7866;52.280;9.500;2023-02-12T12:21:36;102587.03;;;9.52;96.05
15529;BME280;7866;52.280;9.500;2023-02-12T12:26:46;102584.03;;;9.57;96.32
15529;BME280;7866;52.280;9.500;2023-02-12T12:31:53;102585.00;;;9.69;96.57
15529;BME280;7866;52.280;9.500;2023-02-12T12:37:20;102574.63;;;9.64;95.86
15529;BME280;7866;52.280;9.500;2023-02-12T12:42:45;102573.56;;;9.67;95.84
15529;BME280;7866;52.280;9.500;2023-02-12T12:48:02;102575.03;;;9.71;95.38
15529;BME280;7866;52.280;9.500;2023-02-12T12:53:16;102571.81;;;9.78;95.68
15529;BME280;7866;52.280;9.500;2023-02-12T12:58:32;102569.03;;;9.80;95.61
15529;BME280;7866;52.280;9.500;2023-02-12T13:03:59;102564.19;;;9.98;94.87
15529;BME280;7866;52.280;9.500;2023-02-12T13:14:39;102560.81;;;9.70;91.09
15529;BME280;7866;52.280;9.500;2023-02-12T13:19:54;102550.44;;;9.66;90.83
15529;BME280;7866;52.280;9.500;2023-02-12T13:25:06;102549.66;;;9.76;90.66
15529;BME280;7866;52.280;9.500;2023-02-12T13:30:20;102548.97;;;9.61;90.43
15529;BME280;7866;52.280;9.500;2023-02-12T13:35:24;102549.50;;;9.54;91.17
15529;BME280;7866;52.280;9.500;2023-02-12T13:40:30;102542.53;;;9.38;91.22
15529;BME280;7866;52.280;9.500;2023-02-12T13:45:40;102536.41;;;9.49;92.53
15529;BME280;7866;52.280;9.500;2023-02-12T13:50:50;102545.22;;;9.38;92.19
15529;BME280;7866;52.280;9.500;2023-02-12T13:56:05;102543.19;;;9.42;92.78
15529;BME280;7866;52.280;9.500;2023-02-12T14:01:10;102540.81;;;9.50;93.20
15529;BME280;7866;52.280;9.500;2023-02-12T14:06:15;102540.38;;;9.56;92.99
15529;BME280;7866;52.280;9.500;2023-02-12T14:11:19;102540.50;;;9.42;91.86
15529;BME280;7866;52.280;9.500;2023-02-12T14:16:38;102539.94;;;9.37;91.32
15529;BME280;7866;52.280;9.500;2023-02-12T14:21:40;102536.44;;;9.36;91.06
15529;BME280;7866;52.280;9.500;2023-02-12T14:26:43;102537.59;;;9.32;90.56
15529;BME280;7866;52.280;9.500;2023-02-12T14:31:46;102551.63;;;9.23;90.34
15529;BME280;7866;52.280;9.500;2023-02-12T14:37:14;102563.28;;;9.22;90.80
15529;BME280;7866;52.280;9.500;2023-02-12T14:42:42;102567.75;;;9.09;91.75
15529;BME280;7866;52.280;9.500;2023-02-12T14:47:50;102571.81;;;9.02;91.89
15529;BME280;7866;52.280;9.500;2023-02-12T14:52:57;102566.56;;;9.00;91.74
15529;BME280;7866;52.280;9.500;2023-02-12T14:58:02;102561.41;;;8.97;91.53
15529;BME280;7866;52.280;9.500;2023-02-12T15:03:17;102558.13;;;8.94;91.60
15529;BME280;7866;52.280;9.500;2023-02-12T15:08:32;102563.03;;;9.00;92.49
15529;BME280;7866;52.280;9.500;2023-02-12T15:13:45;102559.69;;;8.96;92.36
15529;BME280;7866;52.280;9.500;2023-02-12T15:18:53;102570.41;;;8.96;92.26
15529;BME280;7866;52.280;9.500;2023-02-12T15:24:02;102566.41;;;8.89;92.15
15529;BME280;7866;52.280;9.500;2023-02-12T15:29:04;102568.03;;;8.92;92.29
15529;BME280;7866;52.280;9.500;2023-02-12T15:34:18;102557.47;;;8.90;92.06
15529;BME280;7866;52.280;9.500;2023-02-12T15:39:22;102554.88;;;8.88;92.50
15529;BME280;7866;52.280;9.500;2023-02-12T15:44:27;102564.72;;;8.88;92.27
15529;BME280;7866;52.280;9.500;2023-02-12T15:49:36;102570.72;;;8.92;92.68
15529;BME280;7866;52.280;9.500;2023-02-12T15:54:38;102562.25;;;8.85;92.16
15529;BME280;7866;52.280;9.500;2023-02-12T15:59:40;102558.06;;;8.81;92.22
15529;BME280;7866;52.280;9.500;2023-02-12T16:04:43;102554.53;;;8.80;91.89
15529;BME280;7866;52.280;9.500;2023-02-12T16:09:46;102547.28;;;8.82;92.13
15529;BME280;7866;52.280;9.500;2023-02-12T16:14:49;102556.25;;;8.81;91.83
15529;BME280;7866;52.280;9.500;2023-02-12T16:19:56;102553.38;;;8.84;92.10
15529;BME280;7866;52.280;9.500;2023-02-12T16:24:58;102552.94;;;8.78;92.46
15529;BME280;7866;52.280;9.500;2023-02-12T16:30:02;102549.72;;;8.73;92.29
15529;BME280;7866;52.280;9.500;2023-02-12T16:35:26;102562.88;;;8.76;92.53
15529;BME280;7866;52.280;9.500;2023-02-12T16:40:31;102567.56;;;8.72;92.55
15529;BME280;7866;52.280;9.500;2023-02-12T16:45:40;102573.94;;;8.70;92.34
15529;BME280;7866;52.280;9.500;2023-02-12T16:50:47;102578.34;;;8.71;92.74
15529;BME280;7866;52.280;9.500;2023-02-12T16:55:49;102571.84;;;8.75;92.96
15529;BME280;7866;52.280;9.500;2023-02-12T17:00:51;102577.28;;;8.73;92.29
15529;BME280;7866;52.280;9.500;2023-02-12T17:05:55;102582.19;;;8.67;92.58
15529;BME280;7866;52.280;9.500;2023-02-12T17:10:58;102580.44;;;8.66;92.73
15529;BME280;7866;52.280;9.500;2023-02-12T17:16:00;102582.38;;;8.63;93.21
15529;BME280;7866;52.280;9.500;2023-02-12T17:21:07;102590.03;;;8.55;93.15
15529;BME280;7866;52.280;9.500;2023-02-12T17:26:08;102586.59;;;8.53;93.43
15529;BME280;7866;52.280;9.500;2023-02-12T17:31:11;102592.59;;;8.57;93.92
15529;BME280;7866;52.280;9.500;2023-02-12T17:36:14;102595.38;;;8.55;93.61
15529;BME280;7866;52.280;9.500;2023-02-12T17:41:16;102604.38;;;8.54;93.67
15529;BME280;7866;52.280;9.500;2023-02-12T17:46:19;102602.44;;;8.56;93.84
15529;BME280;7866;52.280;9.500;2023-02-12T17:51:23;102616.09;;;8.52;94.01
15529;BME280;7866;52.280;9.500;2023-02-12T17:56:24;102614.28;;;8.52;94.07
15529;BME280;7866;52.280;9.500;2023-02-12T18:01:26;102611.06;;;8.47;93.86
15529;BME280;7866;52.280;9.500;2023-02-12T18:06:29;102604.19;;;8.43;94.21
15529;BME280;7866;52.280;9.500;2023-02-12T18:11:31;102601.03;;;8.36;94.29
15529;BME280;7866;52.280;9.500;2023-02-12T18:16:34;102607.25;;;8.37;94.83
15529;BME280;7866;52.280;9.500;2023-02-12T18:21:37;102600.59;;;8.30;94.81
15529;BME280;7866;52.280;9.500;2023-02-12T18:26:39;102609.53;;;8.29;95.09
15529;BME280;7866;52.280;9.500;2023-02-12T18:31:40;102604.38;;;8.26;95.50
15529;BME280;7866;52.280;9.500;2023-02-12T18:36:43;102592.84;;;8.25;95.93
15529;BME280;7866;52.280;9.500;2023-02-12T18:41:45;102596.38;;;8.26;95.99
15529;BME280;7866;52.280;9.500;2023-02-12T18:46:46;102596.47;;;8.24;96.46
15529;BME280;7866;52.280;9.500;2023-02-12T18:51:50;102592.41;;;8.19;96.08
15529;BME280;7866;52.280;9.500;2023-02-12T18:56:52;102590.03;;;8.14;96.61
15529;BME280;7866;52.280;9.500;2023-02-12T19:01:54;102591.75;;;8.15;96.61
15529;BME280;7866;52.280;9.500;2023-02-12T19:06:57;102593.25;;;8.19;96.61
15529;BME280;7866;52.280;9.500;2023-02-12T19:11:59;102595.16;;;8.17;96.51
15529;BME280;7866;52.280;9.500;2023-02-12T19:17:00;102595.25;;;8.15;96.59
15529;BME280;7866;52.280;9.500;2023-02-12T19:22:04;102595.16;;;8.17;96.50
15529;BME280;7866;52.280;9.500;2023-02-12T19:27:05;102590.88;;;8.14;96.95
15529;BME280;7866;52.280;9.500;2023-02-12T19:32:07;102592.59;;;8.15;96.73
15529;BME280;7866;52.280;9.500;2023-02-12T19:37:10;102589.81;;;8.17;96.49
15529;BME280;7866;52.280;9.500;2023-02-12T19:42:13;102595.81;;;8.21;96.02
15529;BME280;7866;52.280;9.500;2023-02-12T19:47:16;102593.44;;;8.16;95.98
15529;BME280;7866;52.280;9.500;2023-02-12T19:52:19;102589.16;;;8.13;96.10
15529;BME280;7866;52.280;9.500;2023-02-12T19:57:21;102596.41;;;8.11;96.30
15529;BME280;7866;52.280;9.500;2023-02-12T20:02:22;102605.47;;;8.09;96.50
15529;BME280;7866;52.280;9.500;2023-02-12T20:07:25;102605.47;;;8.09;96.81
15529;BME280;7866;52.280;9.500;2023-02-12T20:12:27;102619.66;;;8.09;96.56
15529;BME280;7866;52.280;9.500;2023-02-12T20:17:29;102615.28;;;8.08;96.36
15529;BME280;7866;52.280;9.500;2023-02-12T20:22:32;102623.41;;;8.07;96.81
15529;BME280;7866;52.280;9.500;2023-02-12T20:27:36;102625.09;;;8.08;96.78
15529;BME280;7866;52.280;9.500;2023-02-12T20:32:37;102623.41;;;8.07;96.93
15529;BME280;7866;52.280;9.500;2023-02-12T20:37:43;102622.44;;;8.08;97.05
15529;BME280;7866;52.280;9.500;2023-02-12T20:42:44;102621.59;;;8.07;97.00
15529;BME280;7866;52.280;9.500;2023-02-12T20:47:46;102619.09;;;8.04;96.97
15529;BME280;7866;52.280;9.500;2023-02-12T20:52:49;102616.34;;;8.06;97.09
15529;BME280;7866;52.280;9.500;2023-02-12T20:57:51;102614.06;;;8.00;97.35
15529;BME280;7866;52.280;9.500;2023-02-12T21:02:52;102611.50;;;7.98;97.25
15529;BME280;7866;52.280;9.500;2023-02-12T21:07:55;102617.88;;;7.96;97.58
15529;BME280;7866;52.280;9.500;2023-02-12T21:12:57;102619.88;;;7.92;97.76
15529;BME280;7866;52.280;9.500;2023-02-12T21:17:59;102612.81;;;7.91;97.98
15529;BME280;7866;52.280;9.500;2023-02-12T21:23:02;102606.53;;;7.92;98.00
15529;BME280;7866;52.280;9.500;2023-02-12T21:28:03;102605.69;;;7.92;98.12
15529;BME280;7866;52.280;9.500;2023-02-12T21:33:05;102607.50;;;7.91;98.39
15529;BME280;7866;52.280;9.500;2023-02-12T21:38:08;102611.88;;;7.92;98.46
15529;BME280;7866;52.280;9.500;2023-02-12T21:43:10;102607.84;;;7.85;98.13
15529;BME280;7866;52.280;9.500;2023-02-12T21:48:11;102605.19;;;7.85;98.43
15529;BME280;7866;52.280;9.500;2023-02-12T21:53:14;102604.16;;;7.87;98.57
15529;BME280;7866;52.280;9.500;2023-02-12T21:58:16;102599.78;;;7.86;98.51
15529;BME280;7866;52.280;9.500;2023-02-12T22:03:18;102590.16;;;7.84;98.49
15529;BME280;7866;52.280;9.500;2023-02-12T22:08:22;102594.53;;;7.85;98.52
15529;BME280;7866;52.280;9.500;2023-02-12T22:13:24;102593.47;;;7.87;98.83
15529;BME280;7866;52.280;9.500;2023-02-12T22:18:26;102586.50;;;7.85;98.38
15529;BME280;7866;52.280;9.500;2023-02-12T22:23:29;102597.28;;;7.83;98.45
15529;BME280;7866;52.280;9.500;2023-02-12T22:28:30;102595.47;;;7.84;98.37
15529;BME280;7866;52.280;9.500;2023-02-12T22:33:32;102601.59;;;7.86;98.84
15529;BME280;7866;52.280;9.500;2023-02-12T22:38:36;102590.72;;;7.89;98.45
15529;BME280;7866;52.280;9.500;2023-02-12T22:43:39;102591.78;;;7.86;98.44
15529;BME280;7866;52.280;9.500;2023-02-12T22:48:41;102592.63;;;7.87;99.08
15529;BME280;7866;52.280;9.500;2023-02-12T22:53:45;102589.00;;;7.88;98.57
15529;BME280;7866;52.280;9.500;2023-02-12T22:58:47;102593.00;;;7.95;98.44
15529;BME280;7866;52.280;9.500;2023-02-12T23:03:48;102577.06;;;7.94;98.08
15529;BME280;7866;52.280;9.500;2023-02-12T23:08:53;102571.75;;;7.94;97.52
15529;BME280;7866;52.280;9.500;2023-02-12T23:13:55;102575.66;;;7.88;97.58
15529;BME280;7866;52.280;9.500;2023-02-12T23:18:59;102564.13;;;7.87;97.95
15529;BME280;7866;52.280;9.500;2023-02-12T23:24:02;102572.25;;;7.86;97.70
15529;BME280;7866;52.280;9.500;2023-02-12T23:29:04;102575.94;;;7.83;97.67
15529;BME280;7866;52.280;9.500;2023-02-12T23:34:06;102573.19;;;7.85;98.05
15529;BME280;7866;52.280;9.500;2023-02-12T23:39:10;102581.66;;;7.92;98.08
15529;BME280;7866;52.280;9.500;2023-02-12T23:44:12;102569.47;;;7.87;97.81
15529;BME280;7866;52.280;9.500;2023-02-12T23:49:14;102568.63;;;7.87;97.88
15529;BME280;7866;52.280;9.500;2023-02-12T23:54:17;102567.06;;;7.97;97.72
15529;BME280;7866;52.280;9.500;2023-02-12T23:59:19;102574.41;;;7.94;97.42
